sensor_id;sensor_type;location;lat;lon;timestamp;P1;durP1;ratioP1;P2;durP2;ratioP2
19111;SDS011;9688;51.906;8.376;2022-11-20T00:02:00;25.40;;;12.87;;
19111;SDS011;9688;51.906;8.376;2022-11-20T00:04:46;23.40;;;12.40;;
19111;SDS011;9688;51.906;8.376;2022-11-20T00:07:32;23.07;;;12.83;;
19111;SDS011;9688;51.906;8.376;2022-11-20T00:10:21;27.87;;;14.03;;
19111;SDS011;9688;51.906;8.376;2022-11-20T00:13:19;26.30;;;14.07;;
19111;SDS011;9688;51.906;8.376;2022-11-20T00:16:05;28.90;;;14.73;;
19111;SDS011;9688;51.906;8.376;2022-11-20T00:18:52;28.70;;;14.60;;
19111;SDS011;9688;51.906;8.376;2022-11-20T00:21:38;25.87;;;14.13;;
19111;SDS011;9688;51.906;8.376;2022-11-20T00:24:24;31.20;;;15.83;;
19111;SDS011;9688;51.906;8.376;2022-11-20T00:27:10;28.93;;;15.83;;
19111;SDS011;9688;51.906;8.376;2022-11-20T00:29:57;30.43;;;14.30;;
19111;SDS011;9688;51.906;8.376;2022-11-20T00:32:43;28.40;;;14.23;;
19111;SDS011;9688;51.906;8.376;2022-11-20T00:35:29;24.57;;;12.30;;
19111;SDS011;9688;51.906;8.376;2022-11-20T00:38:17;22.33;;;11.53;;
19111;SDS011;9688;51.906;8.376;2022-11-20T00:41:25;22.83;;;11.23;;
19111;SDS011;9688;51.906;8.376;2022-11-20T00:44:25;19.00;;;11.23;;
19111;SDS011;9688;51.906;8.376;2022-11-20T00:47:33;21.20;;;11.13;;
19111;SDS011;9688;51.906;8.376;2022-11-20T00:50:23;21.00;;;10.83;;
19111;SDS011;9688;51.906;8.376;2022-11-20T00:53:11;17.80;;;9.93;;
19111;SDS011;9688;51.906;8.376;2022-11-20T00:55:57;18.40;;;11.10;;
19111;SDS011;9688;51.906;8.376;2022-11-20T00:58:45;24.13;;;11.27;;
19111;SDS011;9688;51.906;8.376;2022-11-20T01:01:32;19.13;;;10.90;;
19111;SDS011;9688;51.906;8.376;2022-11-20T01:04:19;18.37;;;10.80;;
19111;SDS011;9688;51.906;8.376;2022-11-20T01:07:05;18.20;;;10.87;;
19111;SDS011;9688;51.906;8.376;2022-11-20T01:09:50;19.17;;;10.33;;
19111;SDS011;9688;51.906;8.376;2022-11-20T01:12:36;18.70;;;10.70;;
19111;SDS011;9688;51.906;8.376;2022-11-20T01:15:22;23.20;;;11.77;;
19111;SDS011;9688;51.906;8.376;2022-11-20T01:18:07;21.37;;;11.63;;
19111;SDS011;9688;51.906;8.376;2022-11-20T01:20:54;19.17;;;10.70;;
19111;SDS011;9688;51.906;8.376;2022-11-20T01:23:40;17.53;;;10.17;;
19111;SDS011;9688;51.906;8.376;2022-11-20T01:26:27;20.50;;;10.97;;
19111;SDS011;9688;51.906;8.376;2022-11-20T01:29:15;21.37;;;11.27;;
19111;SDS011;9688;51.906;8.376;2022-11-20T01:32:02;20.93;;;10.97;;
19111;SDS011;9688;51.906;8.376;2022-11-20T01:34:48;25.23;;;13.23;;
19111;SDS011;9688;51.906;8.376;2022-11-20T01:37:36;25.17;;;12.20;;
19111;SDS011;9688;51.906;8.376;2022-11-20T01:40:22;20.43;;;11.53;;
19111;SDS011;9688;51.906;8.376;2022-11-20T01:43:10;19.80;;;11.27;;
19111;SDS011;9688;51.906;8.376;2022-11-20T01:46:14;20.07;;;10.97;;
19111;SDS011;9688;51.906;8.376;2022-11-20T01:49:02;21.23;;;11.57;;
19111;SDS011;9688;51.906;8.376;2022-11-20T01:51:54;22.10;;;11.63;;
19111;SDS011;9688;51.906;8.376;2022-11-20T01:54:47;23.50;;;12.80;;
19111;SDS011;9688;51.906;8.376;2022-11-20T01:57:36;24.47;;;12.20;;
19111;SDS011;9688;51.906;8.376;2022-11-20T02:00:23;22.37;;;11.57;;
19111;SDS011;9688;51.906;8.376;2022-11-20T02:03:09;24.80;;;12.47;;
19111;SDS011;9688;51.906;8.376;2022-11-20T02:06:01;23.87;;;13.03;;
19111;SDS011;9688;51.906;8.376;2022-11-20T02:08:52;20.60;;;11.70;;
19111;SDS011;9688;51.906;8.376;2022-11-20T02:11:41;21.83;;;12.37;;
19111;SDS011;9688;51.906;8.376;2022-11-20T02:14:27;26.53;;;12.83;;
19111;SDS011;9688;51.906;8.376;2022-11-20T02:17:11;26.20;;;12.97;;
19111;SDS011;9688;51.906;8.376;2022-11-20T02:19:58;24.80;;;12.57;;
19111;SDS011;9688;51.906;8.376;2022-11-20T02:22:45;26.23;;;13.37;;
19111;SDS011;9688;51.906;8.376;2022-11-20T02:25:39;26.87;;;13.60;;
19111;SDS011;9688;51.906;8.376;2022-11-20T02:28:28;26.17;;;13.43;;
19111;SDS011;9688;51.906;8.376;2022-11-20T02:31:14;24.10;;;12.67;;
19111;SDS011;9688;51.906;8.376;2022-11-20T02:34:00;26.50;;;13.33;;
19111;SDS011;9688;51.906;8.376;2022-11-20T02:36:46;25.80;;;12.00;;
19111;SDS011;9688;51.906;8.376;2022-11-20T02:39:34;22.97;;;11.80;;
19111;SDS011;9688;51.906;8.376;2022-11-20T02:42:22;20.37;;;11.13;;
19111;SDS011;9688;51.906;8.376;2022-11-20T02:45:08;20.73;;;11.17;;
19111;SDS011;9688;51.906;8.376;2022-11-20T02:47:55;19.27;;;10.50;;
19111;SDS011;9688;51.906;8.376;2022-11-20T02:50:47;16.80;;;9.77;;
19111;SDS011;9688;51.906;8.376;2022-11-20T02:53:51;16.27;;;9.77;;
19111;SDS011;9688;51.906;8.376;2022-11-20T02:56:48;18.00;;;10.00;;
19111;SDS011;9688;51.906;8.376;2022-11-20T02:59:40;22.27;;;10.53;;
19111;SDS011;9688;51.906;8.376;2022-11-20T03:02:29;23.03;;;11.00;;
19111;SDS011;9688;51.906;8.376;2022-11-20T03:05:14;18.13;;;9.97;;
19111;SDS011;9688;51.906;8.376;2022-11-20T03:08:00;21.70;;;10.63;;
19111;SDS011;9688;51.906;8.376;2022-11-20T03:10:46;21.73;;;10.73;;
19111;SDS011;9688;51.906;8.376;2022-11-20T03:13:32;18.40;;;10.33;;
19111;SDS011;9688;51.906;8.376;2022-11-20T03:16:19;17.83;;;9.77;;
19111;SDS011;9688;51.906;8.376;2022-11-20T03:19:07;17.77;;;10.17;;
19111;SDS011;9688;51.906;8.376;2022-11-20T03:21:54;15.87;;;9.60;;
19111;SDS011;9688;51.906;8.376;2022-11-20T03:24:47;15.60;;;9.80;;
19111;SDS011;9688;51.906;8.376;2022-11-20T03:27:45;17.80;;;9.90;;
19111;SDS011;9688;51.906;8.376;2022-11-20T03:30:46;17.43;;;9.73;;
19111;SDS011;9688;51.906;8.376;2022-11-20T03:33:34;22.17;;;10.07;;
19111;SDS011;9688;51.906;8.376;2022-11-20T03:36:20;17.27;;;10.00;;
19111;SDS011;9688;51.906;8.376;2022-11-20T03:39:06;17.40;;;10.00;;
19111;SDS011;9688;51.906;8.376;2022-11-20T03:41:53;17.17;;;10.07;;
19111;SDS011;9688;51.906;8.376;2022-11-20T03:44:38;18.20;;;10.30;;
19111;SDS011;9688;51.906;8.376;2022-11-20T03:47:24;20.47;;;10.20;;
19111;SDS011;9688;51.906;8.376;2022-11-20T03:50:12;21.30;;;10.53;;
19111;SDS011;9688;51.906;8.376;2022-11-20T03:52:59;17.27;;;9.70;;
19111;SDS011;9688;51.906;8.376;2022-11-20T03:55:57;16.10;;;10.03;;
19111;SDS011;9688;51.906;8.376;2022-11-20T03:58:51;18.67;;;10.73;;
19111;SDS011;9688;51.906;8.376;2022-11-20T04:01:37;20.07;;;9.87;;
19111;SDS011;9688;51.906;8.376;2022-11-20T04:04:23;18.90;;;9.90;;
19111;SDS011;9688;51.906;8.376;2022-11-20T04:07:10;17.87;;;9.40;;
19111;SDS011;9688;51.906;8.376;2022-11-20T04:09:56;18.60;;;9.77;;
19111;SDS011;9688;51.906;8.376;2022-11-20T04:12:42;20.30;;;11.27;;
19111;SDS011;9688;51.906;8.376;2022-11-20T04:15:34;17.57;;;9.40;;
19111;SDS011;9688;51.906;8.376;2022-11-20T04:18:36;21.47;;;10.10;;
19111;SDS011;9688;51.906;8.376;2022-11-20T04:21:32;17.90;;;10.03;;
19111;SDS011;9688;51.906;8.376;2022-11-20T04:24:24;20.37;;;9.90;;
19111;SDS011;9688;51.906;8.376;2022-11-20T04:27:12;16.63;;;9.43;;
19111;SDS011;9688;51.906;8.376;2022-11-20T04:30:00;16.57;;;9.37;;
19111;SDS011;9688;51.906;8.376;2022-11-20T04:33:03;16.57;;;9.07;;
19111;SDS011;9688;51.906;8.376;2022-11-20T04:35:49;19.83;;;10.27;;
19111;SDS011;9688;51.906;8.376;2022-11-20T04:38:35;17.80;;;9.97;;
19111;SDS011;9688;51.906;8.376;2022-11-20T04:41:24;15.03;;;8.83;;
19111;SDS011;9688;51.906;8.376;2022-11-20T04:44:11;14.97;;;8.83;;
19111;SDS011;9688;51.906;8.376;2022-11-20T04:46:57;18.20;;;8.93;;
19111;SDS011;9688;51.906;8.376;2022-11-20T04:49:43;13.60;;;8.87;;
19111;SDS011;9688;51.906;8.376;2022-11-20T04:52:29;15.90;;;9.10;;
19111;SDS011;9688;51.906;8.376;2022-11-20T04:58:25;13.80;;;8.10;;
19111;SDS011;9688;51.906;8.376;2022-11-20T05:01:21;16.43;;;9.60;;
19111;SDS011;9688;51.906;8.376;2022-11-20T05:04:09;12.43;;;8.37;;
19111;SDS011;9688;51.906;8.376;2022-11-20T05:06:55;16.63;;;9.10;;
19111;SDS011;9688;51.906;8.376;2022-11-20T05:09:40;17.60;;;10.13;;
19111;SDS011;9688;51.906;8.376;2022-11-20T05:12:29;18.07;;;8.50;;
19111;SDS011;9688;51.906;8.376;2022-11-20T05:15:16;14.80;;;8.20;;
19111;SDS011;9688;51.906;8.376;2022-11-20T05:18:02;15.93;;;8.80;;
19111;SDS011;9688;51.906;8.376;2022-11-20T05:20:54;13.97;;;8.23;;
19111;SDS011;9688;51.906;8.376;2022-11-20T05:23:50;14.83;;;8.63;;
19111;SDS011;9688;51.906;8.376;2022-11-20T05:26:41;18.57;;;8.17;;
19111;SDS011;9688;51.906;8.376;2022-11-20T05:29:43;15.77;;;8.50;;
19111;SDS011;9688;51.906;8.376;2022-11-20T05:32:42;16.90;;;8.83;;
19111;SDS011;9688;51.906;8.376;2022-11-20T05:35:27;13.63;;;8.07;;
19111;SDS011;9688;51.906;8.376;2022-11-20T05:38:15;15.73;;;8.80;;
19111;SDS011;9688;51.906;8.376;2022-11-20T05:41:11;14.07;;;8.03;;
19111;SDS011;9688;51.906;8.376;2022-11-20T05:43:58;18.00;;;8.57;;
19111;SDS011;9688;51.906;8.376;2022-11-20T05:46:45;17.97;;;8.90;;
19111;SDS011;9688;51.906;8.376;2022-11-20T05:49:48;14.57;;;7.80;;
19111;SDS011;9688;51.906;8.376;2022-11-20T05:52:45;13.10;;;8.20;;
19111;SDS011;9688;51.906;8.376;2022-11-20T05:55:47;12.97;;;7.50;;
19111;SDS011;9688;51.906;8.376;2022-11-20T05:58:49;12.93;;;8.00;;
19111;SDS011;9688;51.906;8.376;2022-11-20T06:01:38;13.57;;;7.97;;
19111;SDS011;9688;51.906;8.376;2022-11-20T06:04:29;14.97;;;8.23;;
19111;SDS011;9688;51.906;8.376;2022-11-20T06:07:16;13.37;;;8.37;;
19111;SDS011;9688;51.906;8.376;2022-11-20T06:10:05;13.23;;;7.60;;
19111;SDS011;9688;51.906;8.376;2022-11-20T06:12:51;15.17;;;8.23;;
19111;SDS011;9688;51.906;8.376;2022-11-20T06:15:37;13.67;;;7.47;;
19111;SDS011;9688;51.906;8.376;2022-11-20T06:18:23;13.93;;;7.67;;
19111;SDS011;9688;51.906;8.376;2022-11-20T06:21:12;11.07;;;6.57;;
19111;SDS011;9688;51.906;8.376;2022-11-20T06:24:01;14.50;;;8.07;;
19111;SDS011;9688;51.906;8.376;2022-11-20T06:26:47;16.67;;;8.10;;
19111;SDS011;9688;51.906;8.376;2022-11-20T06:29:32;12.80;;;8.30;;
19111;SDS011;9688;51.906;8.376;2022-11-20T06:32:19;13.50;;;7.87;;
19111;SDS011;9688;51.906;8.376;2022-11-20T06:35:06;13.30;;;8.63;;
19111;SDS011;9688;51.906;8.376;2022-11-20T06:38:11;12.50;;;7.50;;
19111;SDS011;9688;51.906;8.376;2022-11-20T06:41:02;12.83;;;7.50;;
19111;SDS011;9688;51.906;8.376;2022-11-20T06:43:49;12.23;;;7.40;;
19111;SDS011;9688;51.906;8.376;2022-11-20T06:46:35;15.17;;;8.70;;
19111;SDS011;9688;51.906;8.376;2022-11-20T06:49:21;13.93;;;8.30;;
19111;SDS011;9688;51.906;8.376;2022-11-20T06:52:07;13.37;;;8.30;;
19111;SDS011;9688;51.906;8.376;2022-11-20T06:54:53;14.07;;;8.23;;
19111;SDS011;9688;51.906;8.376;2022-11-20T06:57:41;13.20;;;8.30;;
19111;SDS011;9688;51.906;8.376;2022-11-20T07:00:26;14.97;;;8.03;;
19111;SDS011;9688;51.906;8.376;2022-11-20T07:03:12;13.07;;;7.13;;
19111;SDS011;9688;51.906;8.376;2022-11-20T07:05:58;13.27;;;7.57;;
19111;SDS011;9688;51.906;8.376;2022-11-20T07:08:46;15.60;;;8.13;;
19111;SDS011;9688;51.906;8.376;2022-11-20T07:11:32;11.73;;;7.30;;
19111;SDS011;9688;51.906;8.376;2022-11-20T07:14:19;13.37;;;7.40;;
19111;SDS011;9688;51.906;8.376;2022-11-20T07:17:05;11.17;;;6.93;;
19111;SDS011;9688;51.906;8.376;2022-11-20T07:19:50;12.27;;;7.07;;
19111;SDS011;9688;51.906;8.376;2022-11-20T07:22:36;11.60;;;7.13;;
19111;SDS011;9688;51.906;8.376;2022-11-20T07:25:22;11.10;;;6.93;;
19111;SDS011;9688;51.906;8.376;2022-11-20T07:28:09;10.20;;;6.77;;
19111;SDS011;9688;51.906;8.376;2022-11-20T07:30:56;13.40;;;7.93;;
19111;SDS011;9688;51.906;8.376;2022-11-20T07:33:41;13.10;;;6.87;;
19111;SDS011;9688;51.906;8.376;2022-11-20T07:36:29;12.57;;;7.30;;
19111;SDS011;9688;51.906;8.376;2022-11-20T07:39:30;10.80;;;6.93;;
19111;SDS011;9688;51.906;8.376;2022-11-20T07:42:21;11.60;;;7.47;;
19111;SDS011;9688;51.906;8.376;2022-11-20T07:45:07;13.20;;;7.77;;
19111;SDS011;9688;51.906;8.376;2022-11-20T07:47:55;14.27;;;8.60;;
19111;SDS011;9688;51.906;8.376;2022-11-20T07:50:42;14.30;;;8.27;;
19111;SDS011;9688;51.906;8.376;2022-11-20T07:53:27;12.87;;;7.40;;
19111;SDS011;9688;51.906;8.376;2022-11-20T07:56:13;11.17;;;6.90;;
19111;SDS011;9688;51.906;8.376;2022-11-20T07:58:59;11.77;;;6.93;;
19111;SDS011;9688;51.906;8.376;2022-11-20T08:01:46;12.77;;;7.13;;
19111;SDS011;9688;51.906;8.376;2022-11-20T08:04:40;11.67;;;7.10;;
19111;SDS011;9688;51.906;8.376;2022-11-20T08:07:26;14.20;;;7.53;;
19111;SDS011;9688;51.906;8.376;2022-11-20T08:10:12;11.53;;;7.00;;
19111;SDS011;9688;51.906;8.376;2022-11-20T08:13:00;11.00;;;6.93;;
19111;SDS011;9688;51.906;8.376;2022-11-20T08:16:08;12.50;;;7.27;;
19111;SDS011;9688;51.906;8.376;2022-11-20T08:18:54;12.43;;;7.00;;
19111;SDS011;9688;51.906;8.376;2022-11-20T08:21:42;11.47;;;7.10;;
19111;SDS011;9688;51.906;8.376;2022-11-20T08:24:28;14.73;;;7.63;;
19111;SDS011;9688;51.906;8.376;2022-11-20T08:27:18;12.20;;;7.07;;
19111;SDS011;9688;51.906;8.376;2022-11-20T08:30:24;13.23;;;7.80;;
19111;SDS011;9688;51.906;8.376;2022-11-20T08:33:35;11.10;;;6.67;;
19111;SDS011;9688;51.906;8.376;2022-11-20T08:36:21;12.03;;;7.30;;
19111;SDS011;9688;51.906;8.376;2022-11-20T08:39:10;14.33;;;7.50;;
19111;SDS011;9688;51.906;8.376;2022-11-20T08:41:57;11.67;;;7.10;;
19111;SDS011;9688;51.906;8.376;2022-11-20T08:44:43;11.23;;;7.67;;
19111;SDS011;9688;51.906;8.376;2022-11-20T08:47:29;13.53;;;7.67;;
19111;SDS011;9688;51.906;8.376;2022-11-20T08:50:15;13.87;;;7.67;;
19111;SDS011;9688;51.906;8.376;2022-11-20T08:53:06;13.53;;;7.70;;
19111;SDS011;9688;51.906;8.376;2022-11-20T08:55:53;12.70;;;7.47;;
19111;SDS011;9688;51.906;8.376;2022-11-20T08:58:39;14.30;;;7.90;;
19111;SDS011;9688;51.906;8.376;2022-11-20T09:01:28;13.10;;;8.17;;
19111;SDS011;9688;51.906;8.376;2022-11-20T09:04:17;11.77;;;7.40;;
19111;SDS011;9688;51.906;8.376;2022-11-20T09:07:04;13.70;;;7.70;;
19111;SDS011;9688;51.906;8.376;2022-11-20T09:09:50;14.60;;;7.83;;
19111;SDS011;9688;51.906;8.376;2022-11-20T09:12:37;16.57;;;8.17;;
19111;SDS011;9688;51.906;8.376;2022-11-20T09:15:22;13.20;;;7.73;;
19111;SDS011;9688;51.906;8.376;2022-11-20T09:18:09;14.10;;;7.57;;
19111;SDS011;9688;51.906;8.376;2022-11-20T09:20:56;14.93;;;8.30;;
19111;SDS011;9688;51.906;8.376;2022-11-20T09:23:42;14.23;;;8.10;;
19111;SDS011;9688;51.906;8.376;2022-11-20T09:26:29;14.10;;;8.23;;
19111;SDS011;9688;51.906;8.376;2022-11-20T09:29:17;15.57;;;9.07;;
19111;SDS011;9688;51.906;8.376;2022-11-20T09:32:14;15.57;;;8.47;;
19111;SDS011;9688;51.906;8.376;2022-11-20T09:35:15;16.27;;;8.50;;
19111;SDS011;9688;51.906;8.376;2022-11-20T09:38:21;14.10;;;8.33;;
19111;SDS011;9688;51.906;8.376;2022-11-20T09:41:24;18.97;;;8.27;;
19111;SDS011;9688;51.906;8.376;2022-11-20T09:44:34;14.57;;;7.97;;
19111;SDS011;9688;51.906;8.376;2022-11-20T09:47:44;13.87;;;7.73;;
19111;SDS011;9688;51.906;8.376;2022-11-20T09:51:04;14.07;;;7.57;;
19111;SDS011;9688;51.906;8.376;2022-11-20T09:54:06;13.60;;;8.37;;
19111;SDS011;9688;51.906;8.376;2022-11-20T09:57:18;16.47;;;8.23;;
19111;SDS011;9688;51.906;8.376;2022-11-20T10:00:21;10.73;;;7.50;;
19111;SDS011;9688;51.906;8.376;2022-11-20T10:03:11;14.77;;;8.23;;
19111;SDS011;9688;51.906;8.376;2022-11-20T10:06:01;15.27;;;8.40;;
19111;SDS011;9688;51.906;8.376;2022-11-20T10:08:54;12.23;;;8.07;;
19111;SDS011;9688;51.906;8.376;2022-11-20T10:11:48;14.87;;;9.00;;
19111;SDS011;9688;51.906;8.376;2022-11-20T10:14:48;11.57;;;7.70;;
19111;SDS011;9688;51.906;8.376;2022-11-20T10:17:55;16.20;;;7.90;;
19111;SDS011;9688;51.906;8.376;2022-11-20T10:20:54;14.73;;;8.30;;
19111;SDS011;9688;51.906;8.376;2022-11-20T10:23:56;13.83;;;8.50;;
19111;SDS011;9688;51.906;8.376;2022-11-20T10:26:53;13.80;;;8.60;;
19111;SDS011;9688;51.906;8.376;2022-11-20T10:29:52;13.80;;;8.83;;
19111;SDS011;9688;51.906;8.376;2022-11-20T10:32:52;13.50;;;8.60;;
19111;SDS011;9688;51.906;8.376;2022-11-20T10:35:44;16.83;;;9.23;;
19111;SDS011;9688;51.906;8.376;2022-11-20T10:38:37;13.67;;;8.70;;
19111;SDS011;9688;51.906;8.376;2022-11-20T10:41:27;12.77;;;8.20;;
19111;SDS011;9688;51.906;8.376;2022-11-20T10:44:16;14.73;;;8.83;;
19111;SDS011;9688;51.906;8.376;2022-11-20T10:47:27;14.23;;;8.77;;
19111;SDS011;9688;51.906;8.376;2022-11-20T10:50:18;14.70;;;9.13;;
19111;SDS011;9688;51.906;8.376;2022-11-20T10:53:08;14.90;;;8.73;;
19111;SDS011;9688;51.906;8.376;2022-11-20T10:56:07;15.20;;;8.97;;
19111;SDS011;9688;51.906;8.376;2022-11-20T11:02:32;14.27;;;8.93;;
19111;SDS011;9688;51.906;8.376;2022-11-20T11:05:33;14.80;;;8.50;;
19111;SDS011;9688;51.906;8.376;2022-11-20T11:08:24;14.67;;;8.93;;
19111;SDS011;9688;51.906;8.376;2022-11-20T11:11:20;14.13;;;8.60;;
19111;SDS011;9688;51.906;8.376;2022-11-20T11:14:09;14.57;;;9.10;;
19111;SDS011;9688;51.906;8.376;2022-11-20T11:16:57;12.67;;;7.67;;
19111;SDS011;9688;51.906;8.376;2022-11-20T11:19:43;14.33;;;8.77;;
19111;SDS011;9688;51.906;8.376;2022-11-20T11:22:31;16.23;;;8.80;;
19111;SDS011;9688;51.906;8.376;2022-11-20T11:25:19;15.30;;;8.23;;
19111;SDS011;9688;51.906;8.376;2022-11-20T11:28:19;14.47;;;8.50;;
19111;SDS011;9688;51.906;8.376;2022-11-20T11:31:05;13.67;;;8.93;;
19111;SDS011;9688;51.906;8.376;2022-11-20T11:33:52;14.97;;;8.53;;
19111;SDS011;9688;51.906;8.376;2022-11-20T11:36:49;13.00;;;8.00;;
19111;SDS011;9688;51.906;8.376;2022-11-20T11:39:42;14.57;;;8.40;;
19111;SDS011;9688;51.906;8.376;2022-11-20T11:42:30;15.70;;;8.77;;
19111;SDS011;9688;51.906;8.376;2022-11-20T11:45:16;15.13;;;8.27;;
19111;SDS011;9688;51.906;8.376;2022-11-20T11:48:02;17.00;;;9.17;;
19111;SDS011;9688;51.906;8.376;2022-11-20T11:50:50;13.80;;;8.60;;
19111;SDS011;9688;51.906;8.376;2022-11-20T11:53:39;15.43;;;9.63;;
19111;SDS011;9688;51.906;8.376;2022-11-20T11:56:52;14.67;;;9.47;;
19111;SDS011;9688;51.906;8.376;2022-11-20T11:59:57;14.00;;;8.93;;
19111;SDS011;9688;51.906;8.376;2022-11-20T12:03:09;16.13;;;9.87;;
19111;SDS011;9688;51.906;8.376;2022-11-20T12:06:02;16.20;;;9.30;;
19111;SDS011;9688;51.906;8.376;2022-11-20T12:08:53;17.23;;;9.70;;
19111;SDS011;9688;51.906;8.376;2022-11-20T12:11:46;16.93;;;9.13;;
19111;SDS011;9688;51.906;8.376;2022-11-20T12:14:40;16.83;;;9.57;;
19111;SDS011;9688;51.906;8.376;2022-11-20T12:17:28;16.90;;;9.47;;
19111;SDS011;9688;51.906;8.376;2022-11-20T12:20:13;14.53;;;8.80;;
19111;SDS011;9688;51.906;8.376;2022-11-20T12:23:01;16.07;;;9.53;;
19111;SDS011;9688;51.906;8.376;2022-11-20T12:25:54;14.00;;;9.40;;
19111;SDS011;9688;51.906;8.376;2022-11-20T12:28:54;19.23;;;9.80;;
19111;SDS011;9688;51.906;8.376;2022-11-20T12:31:54;17.77;;;9.83;;
19111;SDS011;9688;51.906;8.376;2022-11-20T12:34:54;18.50;;;9.73;;
19111;SDS011;9688;51.906;8.376;2022-11-20T12:38:03;21.37;;;11.00;;
19111;SDS011;9688;51.906;8.376;2022-11-20T12:41:13;19.20;;;10.37;;
19111;SDS011;9688;51.906;8.376;2022-11-20T12:44:28;19.17;;;10.67;;
19111;SDS011;9688;51.906;8.376;2022-11-20T12:47:51;17.10;;;9.93;;
19111;SDS011;9688;51.906;8.376;2022-11-20T12:50:51;17.87;;;10.47;;
19111;SDS011;9688;51.906;8.376;2022-11-20T12:53:48;18.93;;;10.87;;
19111;SDS011;9688;51.906;8.376;2022-11-20T12:56:50;21.27;;;11.77;;
19111;SDS011;9688;51.906;8.376;2022-11-20T13:00:13;21.63;;;10.87;;
19111;SDS011;9688;51.906;8.376;2022-11-20T13:06:05;19.20;;;10.10;;
19111;SDS011;9688;51.906;8.376;2022-11-20T13:08:58;21.03;;;11.83;;
19111;SDS011;9688;51.906;8.376;2022-11-20T13:11:46;18.27;;;10.87;;
19111;SDS011;9688;51.906;8.376;2022-11-20T13:14:38;18.43;;;10.77;;
19111;SDS011;9688;51.906;8.376;2022-11-20T13:17:32;17.93;;;10.03;;
19111;SDS011;9688;51.906;8.376;2022-11-20T13:20:22;20.43;;;11.03;;
19111;SDS011;9688;51.906;8.376;2022-11-20T13:23:08;19.60;;;10.87;;
19111;SDS011;9688;51.906;8.376;2022-11-20T13:26:03;17.40;;;10.37;;
19111;SDS011;9688;51.906;8.376;2022-11-20T13:29:03;19.70;;;11.27;;
19111;SDS011;9688;51.906;8.376;2022-11-20T13:32:16;18.47;;;11.33;;
19111;SDS011;9688;51.906;8.376;2022-11-20T13:35:26;18.23;;;10.23;;
19111;SDS011;9688;51.906;8.376;2022-11-20T13:38:14;20.50;;;11.90;;
19111;SDS011;9688;51.906;8.376;2022-11-20T13:41:01;18.33;;;11.20;;
19111;SDS011;9688;51.906;8.376;2022-11-20T13:44:12;22.07;;;11.60;;
19111;SDS011;9688;51.906;8.376;2022-11-20T13:47:00;20.97;;;12.30;;
19111;SDS011;9688;51.906;8.376;2022-11-20T13:49:46;21.57;;;11.33;;
19111;SDS011;9688;51.906;8.376;2022-11-20T13:52:37;19.60;;;11.43;;
19111;SDS011;9688;51.906;8.376;2022-11-20T13:55:33;21.70;;;11.83;;
19111;SDS011;9688;51.906;8.376;2022-11-20T13:58:24;19.47;;;11.47;;
19111;SDS011;9688;51.906;8.376;2022-11-20T14:01:21;18.97;;;10.93;;
19111;SDS011;9688;51.906;8.376;2022-11-20T14:04:11;20.83;;;11.83;;
19111;SDS011;9688;51.906;8.376;2022-11-20T14:07:05;21.03;;;11.70;;
19111;SDS011;9688;51.906;8.376;2022-11-20T14:09:53;25.33;;;12.83;;
19111;SDS011;9688;51.906;8.376;2022-11-20T14:12:40;19.53;;;11.80;;
19111;SDS011;9688;51.906;8.376;2022-11-20T14:15:30;22.50;;;11.80;;
19111;SDS011;9688;51.906;8.376;2022-11-20T14:18:19;20.07;;;12.53;;
19111;SDS011;9688;51.906;8.376;2022-11-20T14:21:08;20.30;;;11.60;;
19111;SDS011;9688;51.906;8.376;2022-11-20T14:24:03;20.57;;;11.83;;
19111;SDS011;9688;51.906;8.376;2022-11-20T14:26:54;19.23;;;11.30;;
19111;SDS011;9688;51.906;8.376;2022-11-20T14:29:44;22.50;;;13.10;;
19111;SDS011;9688;51.906;8.376;2022-11-20T14:32:31;19.50;;;11.50;;
19111;SDS011;9688;51.906;8.376;2022-11-20T14:35:21;21.33;;;12.00;;
19111;SDS011;9688;51.906;8.376;2022-11-20T14:38:10;19.57;;;12.07;;
19111;SDS011;9688;51.906;8.376;2022-11-20T14:41:06;24.80;;;12.90;;
19111;SDS011;9688;51.906;8.376;2022-11-20T14:43:59;23.10;;;13.53;;
19111;SDS011;9688;51.906;8.376;2022-11-20T14:46:46;26.07;;;12.80;;
19111;SDS011;9688;51.906;8.376;2022-11-20T14:49:32;22.53;;;12.87;;
19111;SDS011;9688;51.906;8.376;2022-11-20T14:52:19;25.60;;;13.17;;
19111;SDS011;9688;51.906;8.376;2022-11-20T14:55:07;25.50;;;13.60;;
19111;SDS011;9688;51.906;8.376;2022-11-20T14:57:59;20.47;;;12.20;;
19111;SDS011;9688;51.906;8.376;2022-11-20T15:00:54;24.43;;;12.80;;
19111;SDS011;9688;51.906;8.376;2022-11-20T15:03:45;25.67;;;12.07;;
19111;SDS011;9688;51.906;8.376;2022-11-20T15:06:32;24.97;;;13.33;;
19111;SDS011;9688;51.906;8.376;2022-11-20T15:09:18;23.03;;;12.90;;
19111;SDS011;9688;51.906;8.376;2022-11-20T15:12:04;25.00;;;13.50;;
19111;SDS011;9688;51.906;8.376;2022-11-20T15:14:52;22.33;;;12.70;;
19111;SDS011;9688;51.906;8.376;2022-11-20T15:17:39;23.53;;;12.63;;
19111;SDS011;9688;51.906;8.376;2022-11-20T15:20:27;24.30;;;13.07;;
19111;SDS011;9688;51.906;8.376;2022-11-20T15:23:16;26.43;;;14.00;;
19111;SDS011;9688;51.906;8.376;2022-11-20T15:26:04;22.67;;;12.47;;
19111;SDS011;9688;51.906;8.376;2022-11-20T15:28:50;23.43;;;12.53;;
19111;SDS011;9688;51.906;8.376;2022-11-20T15:31:36;23.63;;;12.53;;
19111;SDS011;9688;51.906;8.376;2022-11-20T15:34:27;22.80;;;11.80;;
19111;SDS011;9688;51.906;8.376;2022-11-20T15:37:13;19.43;;;11.67;;
19111;SDS011;9688;51.906;8.376;2022-11-20T15:40:00;21.57;;;11.83;;
19111;SDS011;9688;51.906;8.376;2022-11-20T15:42:51;21.07;;;12.37;;
19111;SDS011;9688;51.906;8.376;2022-11-20T15:45:49;20.73;;;11.37;;
19111;SDS011;9688;51.906;8.376;2022-11-20T15:48:37;25.27;;;12.13;;
19111;SDS011;9688;51.906;8.376;2022-11-20T15:51:27;21.90;;;12.33;;
19111;SDS011;9688;51.906;8.376;2022-11-20T15:54:16;22.90;;;11.90;;
19111;SDS011;9688;51.906;8.376;2022-11-20T15:57:03;22.17;;;11.53;;
19111;SDS011;9688;51.906;8.376;2022-11-20T15:59:50;20.90;;;12.13;;
19111;SDS011;9688;51.906;8.376;2022-11-20T16:02:46;25.97;;;14.10;;
19111;SDS011;9688;51.906;8.376;2022-11-20T16:05:37;23.33;;;12.07;;
19111;SDS011;9688;51.906;8.376;2022-11-20T16:08:55;24.10;;;12.83;;
19111;SDS011;9688;51.906;8.376;2022-11-20T16:12:02;22.23;;;11.40;;
19111;SDS011;9688;51.906;8.376;2022-11-20T16:14:50;19.17;;;11.37;;
19111;SDS011;9688;51.906;8.376;2022-11-20T16:17:53;21.10;;;11.53;;
19111;SDS011;9688;51.906;8.376;2022-11-20T16:20:39;18.20;;;11.10;;
19111;SDS011;9688;51.906;8.376;2022-11-20T16:23:25;22.47;;;12.10;;
19111;SDS011;9688;51.906;8.376;2022-11-20T16:26:13;21.77;;;11.87;;
19111;SDS011;9688;51.906;8.376;2022-11-20T16:29:00;23.00;;;12.03;;
19111;SDS011;9688;51.906;8.376;2022-11-20T16:31:54;20.57;;;11.60;;
19111;SDS011;9688;51.906;8.376;2022-11-20T16:34:43;19.47;;;11.50;;
19111;SDS011;9688;51.906;8.376;2022-11-20T16:37:29;20.03;;;11.30;;
19111;SDS011;9688;51.906;8.376;2022-11-20T16:40:15;20.27;;;11.17;;
19111;SDS011;9688;51.906;8.376;2022-11-20T16:43:06;20.23;;;11.63;;
19111;SDS011;9688;51.906;8.376;2022-11-20T16:45:54;17.90;;;10.60;;
19111;SDS011;9688;51.906;8.376;2022-11-20T16:48:40;21.67;;;11.67;;
19111;SDS011;9688;51.906;8.376;2022-11-20T16:51:26;20.67;;;10.83;;
19111;SDS011;9688;51.906;8.376;2022-11-20T16:54:14;19.63;;;11.03;;
19111;SDS011;9688;51.906;8.376;2022-11-20T16:57:00;19.93;;;11.13;;
19111;SDS011;9688;51.906;8.376;2022-11-20T16:59:47;23.80;;;11.80;;
19111;SDS011;9688;51.906;8.376;2022-11-20T17:02:33;20.23;;;10.93;;
19111;SDS011;9688;51.906;8.376;2022-11-20T17:05:20;18.17;;;10.97;;
19111;SDS011;9688;51.906;8.376;2022-11-20T17:08:06;18.60;;;11.03;;
19111;SDS011;9688;51.906;8.376;2022-11-20T17:10:54;19.97;;;11.37;;
19111;SDS011;9688;51.906;8.376;2022-11-20T17:13:39;21.70;;;10.63;;